プラハ の空港の天気 - METARとTAF

ルズィニエ国際空港(プラハ) ( LKPR / PRG ) - チェコ プラハ
飛行場実況気象(Metar)
観測時間10/26 16:00 CET (10/26 15:00 UTC)
風向・風速南西 3m/s
視程10km以上
天気現象
全天を覆う雲 雲底高度 640m
気温11℃
湿度87%
気圧1004hPa
METARLKPR 261500Z 22005KT 9999 OVC021 11/09 Q1004 NOSIG
過去の天気等 Google飛行場航空写真 Wunderground天気予報

過去48時間のMETAR

飛行場予報(TAF)
発表時間: 10/26 12:00 CET (10/26 11:00 UTC)
予報対象時間: 26日13時 CET ~ 27日19時 CET
風向・風速南南西 4m/s
視程10km以上
全天の8割程度の雲 雲底高度 670m
26日13時 CET ~ 26日15時 CET に徐々に
風向・風速西南西 6m/s
26日19時 CET ~ 27日9時 CET に一時的に
天気現象弱い雨
全天の8割程度の雲 雲底高度 370m
26日19時 CET ~ 27日8時 CET に 確率 30% で一時的に
視程4000m
天気現象もや
全天の8割程度の雲 雲底高度 180m
27日13時 CET ~ 27日15時 CET に徐々に
全天の4割程度の雲 雲底高度 910m
TAF LKPR 261100Z 2612/2718 20008KT 9999 BKN022
BECMG 2612/2614 24012KT
TEMPO 2618/2708 -RA BKN012
PROB30 TEMPO 2618/2707 4000 BR BKN006
BECMG 2712/2714 SCT030